Time;durP1;ratioP1;P1;durP2;ratioP2;P2;SDS_P1;SDS_P2;PMS_P1;PMS_P2;Temp;Humidity;BMP_temperature;BMP_pressure;BME280_temperature;BME280_humidity;BME280_pressure;Samples;Min_cycle;Max_cycle;Signal;HPM_P1;HPM_P2
2021/04/23 00:02:13;;;;;;;17.70;6.80;;;;;;;3.46;72.00;100639.89;2091496;83;21184;-85
2021/04/23 00:05:15;;;;;;;14.07;7.12;;;;;;;3.43;72.06;100633.55;2093854;83;21664;-84
2021/04/23 00:08:18;;;;;;;14.68;6.67;;;;;;;3.41;72.42;100636.30;2085360;83;21192;-84
2021/04/23 00:11:24;;;;;;;15.45;6.42;;;;;;;3.38;72.64;100636.52;2089493;83;21120;-85
2021/04/23 00:14:34;;;;;;;14.23;6.15;;;;;;;3.34;72.27;100633.73;2088832;83;21189;-84
2021/04/23 00:17:35;;;;;;;18.60;6.60;;;;;;;3.34;72.91;100631.94;2094412;83;21168;-82
2021/04/23 00:20:37;;;;;;;17.02;7.10;;;;;;;3.31;72.67;100634.78;2076204;84;21222;-82
2021/04/23 00:23:40;;;;;;;13.13;5.83;;;;;;;3.31;72.82;100633.95;2089056;83;21144;-83
2021/04/23 00:26:42;;;;;;;16.50;6.97;;;;;;;3.30;72.57;100626.56;2087850;83;21155;-84
2021/04/23 00:29:43;;;;;;;15.18;6.35;;;;;;;3.31;72.64;100629.53;2068181;85;21158;-83
2021/04/23 00:32:51;;;;;;;13.43;5.87;;;;;;;3.30;73.02;100634.91;2068144;84;21077;-82
2021/04/23 00:35:52;;;;;;;10.88;5.87;;;;;;;3.30;73.87;100632.28;2066897;84;21107;-82
2021/04/23 00:38:53;;;;;;;11.80;5.42;;;;;;;3.30;73.47;100634.42;2067736;84;21467;-83
2021/04/23 00:41:54;;;;;;;10.70;5.35;;;;;;;3.33;73.58;100639.94;2065651;84;21098;-83
2021/04/23 00:44:56;;;;;;;13.15;5.05;;;;;;;3.35;74.34;100632.33;2048895;84;21146;-83
2021/04/23 00:48:01;;;;;;;11.18;5.67;;;;;;;3.39;73.55;100634.25;2064758;84;21142;-83
2021/04/23 00:51:07;;;;;;;15.08;5.60;;;;;;;3.44;73.83;100637.39;2060630;84;21174;-83
2021/04/23 00:54:10;;;;;;;13.20;5.70;;;;;;;3.50;73.44;100636.95;2066475;84;21771;-83
2021/04/23 00:57:11;;;;;;;14.25;6.20;;;;;;;3.53;73.79;100638.05;2066175;84;21153;-83
2021/04/23 01:00:13;;;;;;;13.70;5.87;;;;;;;3.57;73.59;100638.66;2061560;84;21152;-84
2021/04/23 01:03:18;;;;;;;13.62;6.17;;;;;;;3.59;73.48;100638.92;2062239;84;21142;-84
2021/04/23 01:06:23;;;;;;;14.43;6.42;;;;;;;3.63;73.50;100640.01;2064239;84;21120;-84
2021/04/23 01:09:29;;;;;;;16.02;5.62;;;;;;;3.66;73.56;100640.66;2061058;84;21585;-84
2021/04/23 01:12:30;;;;;;;11.00;6.15;;;;;;;3.68;73.64;100639.21;2065163;84;21114;-84
2021/04/23 01:15:32;;;;;;;10.72;5.20;;;;;;;3.71;73.79;100638.99;2063851;84;21217;-83
2021/04/23 01:18:34;;;;;;;15.10;5.92;;;;;;;3.74;73.91;100639.59;2062828;84;21125;-83
2021/04/23 01:21:40;;;;;;;16.93;5.85;;;;;;;3.76;73.89;100640.81;2065565;84;21172;-83
2021/04/23 01:24:44;;;;;;;18.25;6.30;;;;;;;3.79;73.86;100644.53;2065929;84;21140;-83
2021/04/23 01:27:46;;;;;;;12.10;6.47;;;;;;;3.80;74.44;100643.57;2069076;84;21587;-83
2021/04/23 01:30:48;;;;;;;10.03;5.45;;;;;;;3.78;73.99;100641.08;2064902;84;21136;-84
2021/04/23 01:33:54;;;;;;;12.35;5.72;;;;;;;3.79;74.10;100647.98;2062419;84;21234;-83
2021/04/23 01:36:57;;;;;;;13.68;5.17;;;;;;;3.81;74.09;100653.98;2067210;84;21119;-84
2021/04/23 01:39:58;;;;;;;12.73;4.95;;;;;;;3.87;74.21;100650.07;2062175;84;21124;-83
2021/04/23 01:43:00;;;;;;;13.45;5.12;;;;;;;3.91;73.95;100651.99;2066519;84;21101;-84
2021/04/23 01:46:04;;;;;;;10.70;5.45;;;;;;;3.94;74.02;100656.57;2064049;84;21176;-83
2021/04/23 01:49:11;;;;;;;11.03;5.50;;;;;;;3.97;74.02;100651.54;2089765;84;21105;-83
2021/04/23 01:52:15;;;;;;;9.80;5.12;;;;;;;3.98;73.93;100658.02;2086834;84;21125;-84
2021/04/23 01:55:21;;;;;;;15.23;4.72;;;;;;;3.99;74.00;100647.86;2061211;84;21149;-84
2021/04/23 01:58:22;;;;;;;6.83;3.92;;;;;;;4.02;74.00;100645.48;2067228;84;21561;-83
2021/04/23 02:01:23;;;;;;;7.00;4.17;;;;;;;4.03;74.10;100653.75;2066263;84;21141;-84
2021/04/23 02:04:25;;;;;;;11.60;4.37;;;;;;;4.04;74.24;100654.94;2065397;84;21105;-82
2021/04/23 02:07:26;;;;;;;11.18;4.90;;;;;;;4.07;74.03;100660.92;2062243;84;21146;-83
2021/04/23 02:10:32;;;;;;;12.03;4.97;;;;;;;4.06;74.05;100664.03;2085624;84;21153;-84
2021/04/23 02:13:36;;;;;;;8.88;5.12;;;;;;;4.06;74.64;100665.34;2083608;84;21566;-83
2021/04/23 02:16:38;;;;;;;8.98;5.05;;;;;;;4.04;74.47;100662.81;2064327;84;21193;-84
2021/04/23 02:19:39;;;;;;;14.93;5.50;;;;;;;4.02;74.34;100667.33;2063775;84;21198;-83
2021/04/23 02:22:43;;;;;;;12.70;5.55;;;;;;;3.99;74.38;100668.86;2064035;84;21117;-83
2021/04/23 02:25:46;;;;;;;12.45;5.00;;;;;;;3.96;74.34;100667.78;2068550;84;21176;-84
2021/04/23 02:28:52;;;;;;;11.75;4.95;;;;;;;3.95;74.33;100671.84;2064267;84;21218;-84
2021/04/23 02:31:55;;;;;;;14.53;5.30;;;;;;;3.91;74.26;100675.14;2045659;85;21189;-83
2021/04/23 02:34:57;;;;;;;9.83;5.17;;;;;;;3.92;74.30;100672.90;2043413;85;22740;-83
2021/04/23 02:37:58;;;;;;;13.88;5.53;;;;;;;3.92;74.31;100679.94;2045370;85;21162;-83
2021/04/23 02:41:00;;;;;;;17.98;6.22;;;;;;;3.91;74.31;100676.94;2045309;85;21149;-83
2021/04/23 02:44:03;;;;;;;11.12;6.12;;;;;;;3.91;74.34;100675.62;2049496;85;21117;-83
2021/04/23 02:47:05;;;;;;;12.53;6.45;;;;;;;3.89;74.50;100675.75;2041431;85;21598;-83
2021/04/23 02:50:11;;;;;;;14.45;5.97;;;;;;;3.85;74.65;100680.00;2046465;85;21110;-83
2021/04/23 02:53:13;;;;;;;14.63;5.45;;;;;;;3.78;74.76;100675.20;2047551;85;21126;-84
2021/04/23 02:56:16;;;;;;;13.53;5.75;;;;;;;3.77;75.05;100673.98;2044223;85;21627;-84
2021/04/23 02:59:18;;;;;;;15.75;5.62;;;;;;;3.79;74.85;100682.59;2058099;84;21208;-84
2021/04/23 03:02:19;;;;;;;12.70;6.05;;;;;;;3.82;74.85;100677.95;2058115;84;21245;-83
2021/04/23 03:05:23;;;;;;;11.93;5.97;;;;;;;3.86;74.84;100675.97;2056017;84;21261;-83
2021/04/23 03:08:26;;;;;;;14.38;6.90;;;;;;;3.87;75.00;100679.43;2056036;84;21172;-83
2021/04/23 03:11:28;;;;;;;14.13;6.55;;;;;;;3.84;75.06;100684.42;2042201;85;21721;-83
2021/04/23 03:14:30;;;;;;;11.70;6.85;;;;;;;3.82;75.18;100681.89;2045921;85;21120;-83
2021/04/23 03:17:31;;;;;;;13.65;5.70;;;;;;;3.80;75.13;100683.81;2043398;85;21609;-84
2021/04/23 03:20:33;;;;;;;10.55;5.40;;;;;;;3.79;75.14;100682.59;2046109;85;21150;-83
2021/04/23 03:23:34;;;;;;;13.30;6.03;;;;;;;3.78;75.34;100680.45;2043246;85;21146;-84
2021/04/23 03:26:36;;;;;;;15.95;5.90;;;;;;;3.77;75.49;100680.09;2044465;85;21126;-85
2021/04/23 03:29:37;;;;;;;10.75;6.05;;;;;;;3.78;75.51;100688.80;2050650;85;21200;-84
2021/04/23 03:32:40;;;;;;;15.43;5.95;;;;;;;3.79;75.44;100693.93;2086473;83;21125;-84
2021/04/23 03:35:49;;;;;;;16.12;6.42;;;;;;;3.81;75.67;100690.73;2085659;83;21157;-83
2021/04/23 03:38:51;;;;;;;13.78;6.85;;;;;;;3.79;75.54;100689.98;2085461;83;21562;-83
2021/04/23 03:41:52;;;;;;;14.47;7.00;;;;;;;3.78;75.62;100692.74;2048895;84;21164;-84
2021/04/23 03:44:54;;;;;;;17.55;6.17;;;;;;;3.79;76.03;100702.28;2082422;83;21563;-83
2021/04/23 03:47:56;;;;;;;11.43;5.70;;;;;;;3.77;76.03;100704.17;2081362;83;21629;-84
2021/04/23 03:50:57;;;;;;;;;;;;;;;3.77;75.76;100698.92;2087648;83;21150;-83
2021/04/23 03:53:59;;;;;;;10.55;5.08;;;;;;;3.79;75.85;100697.86;2083174;83;20316;-84
2021/04/23 03:57:00;;;;;;;11.53;5.58;;;;;;;3.81;75.85;100699.91;2085224;83;21165;-84
2021/04/23 04:00:06;;;;;;;10.18;5.97;;;;;;;3.88;75.83;100705.55;2083287;83;21122;-84
2021/04/23 04:03:10;;;;;;;16.55;5.65;;;;;;;3.93;75.72;100710.02;2081402;83;21125;-84
2021/04/23 04:06:12;;;;;;;15.88;5.97;;;;;;;3.95;75.92;100713.38;2084361;83;21110;-84
2021/04/23 04:09:13;;;;;;;16.07;7.22;;;;;;;3.97;75.72;100715.42;2083431;83;21617;-82
2021/04/23 04:12:15;;;;;;;17.37;6.53;;;;;;;4.00;75.96;100712.58;2086726;83;21125;-81
2021/04/23 04:15:17;;;;;;;15.20;6.90;;;;;;;4.01;75.75;100716.88;2083897;83;22457;-82
2021/04/23 04:18:19;;;;;;;9.88;6.03;;;;;;;4.06;75.77;100719.66;2082506;83;21602;-83
2021/04/23 04:21:20;;;;;;;14.68;6.15;;;;;;;4.10;75.80;100719.78;2083482;83;21150;-79
2021/04/23 04:24:21;;;;;;;15.80;6.28;;;;;;;4.17;75.90;100720.55;2097548;83;21394;-80
2021/04/23 04:27:23;;;;;;;15.35;6.20;;;;;;;4.20;75.94;100726.90;2082757;83;21113;-82
2021/04/23 04:30:26;;;;;;;16.40;6.92;;;;;;;4.24;76.24;100732.28;2083624;83;21617;-82
2021/04/23 04:33:28;;;;;;;14.18;6.50;;;;;;;4.29;75.83;100736.38;2091334;83;21160;-82
2021/04/23 04:36:29;;;;;;;15.43;6.35;;;;;;;4.32;75.81;100736.98;2089448;83;21120;-81
2021/04/23 04:39:30;;;;;;;16.73;6.42;;;;;;;4.33;75.87;100736.51;2091242;83;21125;-81
2021/04/23 04:42:32;;;;;;;21.30;6.87;;;;;;;4.36;75.91;100741.06;2083724;83;21097;-82
2021/04/23 04:45:35;;;;;;;14.13;7.50;;;;;;;4.39;75.97;100743.49;2092122;83;21150;-80
2021/04/23 04:48:36;;;;;;;16.27;6.90;;;;;;;4.50;76.01;100740.05;2120754;82;21629;-82
2021/04/23 04:51:37;;;;;;;15.70;6.20;;;;;;;4.60;76.00;100743.70;2092035;83;21243;-81
2021/04/23 04:54:39;;;;;;;13.75;6.37;;;;;;;4.86;75.93;100747.49;2119942;82;21485;-84
2021/04/23 04:57:40;;;;;;;14.40;7.00;;;;;;;5.04;75.66;100745.27;2115194;82;21237;-82
2021/04/23 05:00:43;;;;;;;19.98;7.33;;;;;;;5.19;75.42;100741.97;2117075;82;21666;-81
2021/04/23 05:03:44;;;;;;;20.77;8.00;;;;;;;5.26;75.15;100743.99;2092984;83;21197;-81
2021/04/23 05:06:46;;;;;;;15.75;6.87;;;;;;;5.30;75.13;100744.14;2119633;82;21101;-81
2021/04/23 05:09:47;;;;;;;14.00;6.80;;;;;;;5.58;75.22;100759.13;2117980;82;21065;-81
2021/04/23 05:12:48;;;;;;;14.25;6.45;;;;;;;5.89;75.04;100755.42;2094336;83;21176;-82
2021/04/23 05:15:50;;;;;;;10.50;5.60;;;;;;;6.04;74.50;100745.83;2097434;83;21540;-80
2021/04/23 05:18:51;;;;;;;14.07;6.62;;;;;;;6.19;74.32;100748.20;2074190;84;21579;-81
2021/04/23 05:21:53;;;;;;;18.02;6.70;;;;;;;6.34;73.76;100750.11;2113325;82;21074;-79
2021/04/23 05:24:54;;;;;;;11.83;6.62;;;;;;;6.32;73.37;100757.29;2092086;83;21142;-81
2021/04/23 05:27:56;;;;;;;11.83;6.50;;;;;;;6.28;73.20;100765.45;2112682;82;21202;-81
2021/04/23 05:30:58;;;;;;;16.87;6.47;;;;;;;6.18;72.81;100767.12;2107037;82;21163;-79
2021/04/23 05:33:59;;;;;;;11.83;6.17;;;;;;;6.11;72.91;100764.64;2092853;83;21145;-80
2021/04/23 05:37:01;;;;;;;13.20;6.40;;;;;;;6.08;72.81;100767.49;2096558;83;21619;-80
2021/04/23 05:40:06;;;;;;;11.70;5.67;;;;;;;6.07;72.77;100771.10;2071459;84;21188;-79
2021/04/23 05:43:07;;;;;;;16.60;6.58;;;;;;;6.12;72.68;100770.75;2074133;84;21221;-80
2021/04/23 05:46:08;;;;;;;12.93;6.70;;;;;;;6.32;72.82;100763.39;2076565;84;21180;-80
2021/04/23 05:49:11;;;;;;;11.40;7.03;;;;;;;6.48;72.22;100770.91;2070187;84;21154;-82
2021/04/23 05:52:13;;;;;;;13.80;6.90;;;;;;;6.65;71.89;100770.86;2075207;84;21161;-79
2021/04/23 05:55:18;;;;;;;14.50;6.40;;;;;;;6.72;71.47;100777.28;2069118;84;21113;-81
2021/04/23 05:58:20;;;;;;;14.55;7.37;;;;;;;6.79;71.39;100775.00;2074693;84;21137;-79
2021/04/23 06:01:22;;;;;;;16.02;6.28;;;;;;;6.84;71.12;100783.34;2073576;84;21919;-78
2021/04/23 06:04:24;;;;;;;20.23;8.23;;;;;;;7.08;71.67;100774.73;2073496;84;21204;-82
2021/04/23 06:07:25;;;;;;;14.20;6.90;;;;;;;7.16;70.63;100773.61;2074834;84;21142;-81
2021/04/23 06:10:27;;;;;;;15.32;7.40;;;;;;;7.03;70.59;100772.95;2072607;84;21117;-81
2021/04/23 06:13:29;;;;;;;14.53;6.97;;;;;;;6.87;70.63;100773.86;2073234;84;21137;-80
2021/04/23 06:16:30;;;;;;;13.50;5.97;;;;;;;6.67;70.30;100778.14;2071068;84;21145;-81
2021/04/23 06:19:33;;;;;;;12.70;6.17;;;;;;;6.48;70.57;100778.82;2074020;84;21162;-81
2021/04/23 06:22:34;;;;;;;14.93;6.17;;;;;;;6.36;70.82;100786.37;2075974;84;21130;-80
2021/04/23 06:25:36;;;;;;;12.60;6.83;;;;;;;6.26;70.88;100789.76;2074616;84;21486;-81
2021/04/23 06:28:37;;;;;;;12.90;7.12;;;;;;;6.20;71.15;100788.11;2074121;84;21226;-80
2021/04/23 06:31:39;;;;;;;14.20;8.05;;;;;;;6.12;70.98;100786.55;2074714;84;21566;-79
2021/04/23 06:34:40;;;;;;;14.53;5.75;;;;;;;6.08;71.23;100793.84;2074138;84;21213;-78
2021/04/23 06:37:43;;;;;;;15.40;7.37;;;;;;;6.13;71.38;100790.37;2076770;84;21205;-81
2021/04/23 06:40:44;;;;;;;23.80;7.30;;;;;;;6.17;71.00;100792.30;2077791;84;21145;-79
2021/04/23 06:43:46;;;;;;;16.52;7.87;;;;;;;6.25;71.19;100792.50;2075565;84;21154;-81
2021/04/23 06:46:48;;;;;;;21.05;8.23;;;;;;;6.36;70.96;100798.23;2080933;83;22918;-81
2021/04/23 06:49:49;;;;;;;14.65;6.90;;;;;;;6.30;70.57;100807.48;2080281;84;21173;-82
2021/04/23 06:52:56;;;;;;;18.12;7.92;;;;;;;6.25;70.47;100800.41;2078840;83;21124;-79
2021/04/23 06:55:55;;;;;;;19.52;7.17;;;;;;;6.21;70.56;100791.92;2058851;84;21161;-80
2021/04/23 06:58:56;;;;;;;19.30;8.03;;;;;;;6.22;70.65;100808.56;2074039;84;21110;-81
2021/04/23 07:01:58;;;;;;;19.15;7.83;;;;;;;6.25;70.93;100802.59;2096385;83;21578;-80
2021/04/23 07:05:00;;;;;;;14.85;6.90;;;;;;;6.18;70.39;100814.56;2076376;84;21211;-80
2021/04/23 07:08:01;;;;;;;14.38;7.17;;;;;;;6.12;70.20;100812.42;2076730;84;21200;-80
2021/04/23 07:11:03;;;;;;;16.37;7.83;;;;;;;6.03;70.30;100812.66;2076134;84;21146;-82
2021/04/23 07:14:04;;;;;;;14.23;7.33;;;;;;;6.04;70.52;100812.18;2098996;83;21085;-81
2021/04/23 07:17:07;;;;;;;16.85;7.47;;;;;;;6.06;70.35;100814.23;2064297;84;21111;-80
2021/04/23 07:20:10;;;;;;;19.32;8.15;;;;;;;6.07;70.86;100817.20;2075660;84;21137;-81
2021/04/23 07:23:12;;;;;;;14.63;7.03;;;;;;;6.09;70.24;100820.56;2074384;83;21150;-80
2021/04/23 07:26:13;;;;;;;17.85;6.85;;;;;;;6.13;70.34;100817.20;2076303;84;21188;-81
2021/04/23 07:29:14;;;;;;;20.82;7.58;;;;;;;6.15;70.55;100820.08;2076633;84;21122;-79
2021/04/23 07:32:16;;;;;;;20.40;8.60;;;;;;;6.10;70.41;100824.87;2092993;83;21573;-81
2021/04/23 07:35:17;;;;;;;18.25;9.40;;;;;;;6.18;70.52;100821.16;2090322;83;21245;-80
2021/04/23 07:38:20;;;;;;;17.07;8.00;;;;;;;6.30;70.17;100828.56;2093285;83;21145;-81
2021/04/23 07:41:21;;;;;;;16.85;8.15;;;;;;;6.30;69.80;100829.87;2074134;84;21125;-81
2021/04/23 07:44:24;;;;;;;17.60;8.78;;;;;;;6.30;69.51;100833.83;2072686;84;21732;-80
2021/04/23 07:47:26;;;;;;;21.33;9.10;;;;;;;6.33;69.46;100836.70;2071904;84;21116;-80
2021/04/23 07:50:28;;;;;;;21.62;9.85;;;;;;;6.40;69.46;100831.32;2073056;84;21070;-80
2021/04/23 07:53:29;;;;;;;21.95;9.40;;;;;;;6.51;69.42;100833.94;2072228;84;21538;-79
2021/04/23 07:56:30;;;;;;;25.72;10.30;;;;;;;6.57;69.21;100839.20;2073679;84;21221;-81
2021/04/23 07:59:32;;;;;;;21.02;8.63;;;;;;;6.60;68.71;100843.73;2074922;84;21519;-80
2021/04/23 08:02:33;;;;;;;19.20;8.93;;;;;;;6.56;68.61;100851.55;2073943;84;21186;-80
2021/04/23 08:05:35;;;;;;;25.82;10.45;;;;;;;6.55;68.61;100849.02;2072274;84;21129;-81
2021/04/23 08:08:36;;;;;;;37.90;17.17;;;;;;;6.62;68.90;100851.54;2075435;84;21158;-79
2021/04/23 08:11:38;;;;;;;19.12;8.63;;;;;;;6.65;69.00;100851.29;2072207;84;21122;-79
2021/04/23 08:14:39;;;;;;;15.03;8.43;;;;;;;6.73;68.84;100854.98;2074090;84;21565;-80
2021/04/23 08:17:41;;;;;;;29.05;8.40;;;;;;;6.88;68.76;100847.61;2072320;84;21148;-81
2021/04/23 08:20:42;;;;;;;20.85;8.70;;;;;;;6.99;68.59;100841.47;2069203;84;21126;-79
2021/04/23 08:23:46;;;;;;;22.22;8.75;;;;;;;6.91;68.22;100850.48;2071937;84;21106;-81
2021/04/23 08:26:47;;;;;;;22.55;8.83;;;;;;;6.76;68.27;100856.99;2073677;84;21119;-81
2021/04/23 08:29:49;;;;;;;18.92;8.55;;;;;;;6.62;68.39;100858.97;2072566;84;21157;-80
2021/04/23 08:32:51;;;;;;;20.32;8.15;;;;;;;6.47;68.54;100868.08;2073322;84;21130;-81
2021/04/23 08:35:52;;;;;;;23.30;8.25;;;;;;;6.28;69.30;100863.45;2071996;84;21208;-81
2021/04/23 08:38:53;;;;;;;18.70;8.58;;;;;;;6.19;70.19;100868.10;2075404;84;22474;-81
2021/04/23 08:41:55;;;;;;;20.48;9.35;;;;;;;6.18;70.36;100869.07;2072844;84;21085;-80
2021/04/23 08:44:56;;;;;;;16.62;8.38;;;;;;;6.20;70.48;100862.72;2071109;84;21205;-80
2021/04/23 08:47:58;;;;;;;21.20;9.23;;;;;;;6.21;70.27;100872.78;2073817;84;21101;-80
2021/04/23 08:50:59;;;;;;;13.10;7.08;;;;;;;6.17;70.70;100871.36;2074513;84;21604;-80
2021/04/23 08:54:03;;;;;;;14.83;7.95;;;;;;;5.88;70.96;100880.15;2071891;84;21146;-81
2021/04/23 08:57:06;;;;;;;24.43;10.80;;;;;;;5.68;71.31;100877.23;2073503;84;21141;-81
2021/04/23 09:00:10;;;;;;;21.20;9.68;;;;;;;5.68;72.53;100878.55;2092871;83;21589;-79
2021/04/23 09:03:14;;;;;;;23.15;9.20;;;;;;;5.80;72.56;100886.86;2079676;83;21258;-80
2021/04/23 09:06:23;;;;;;;22.27;8.25;;;;;;;6.09;72.90;100885.61;2095960;83;21193;-80
2021/04/23 09:09:33;;;;;;;23.57;8.58;;;;;;;6.68;72.75;100887.96;2069349;84;21153;-80
2021/04/23 09:12:36;;;;;;;19.85;10.03;;;;;;;6.93;71.46;100878.42;2073378;84;21138;-81
2021/04/23 09:15:41;;;;;;;22.32;8.80;;;;;;;7.05;71.00;100873.95;2072579;84;21142;-81
2021/04/23 09:18:42;;;;;;;22.48;9.18;;;;;;;6.93;70.29;100884.19;2072760;84;21137;-81
2021/04/23 09:21:57;;;;;;;19.20;8.00;;;;;;;7.01;70.34;100885.73;2073529;84;21608;-79
2021/04/23 09:25:04;;;;;;;23.12;7.62;;;;;;;7.11;70.97;100880.52;2071732;84;21138;-83
2021/04/23 09:28:05;;;;;;;16.20;7.87;;;;;;;7.38;70.30;100880.05;2069892;84;21097;-80
2021/04/23 09:31:31;;;;;;;14.98;8.63;;;;;;;8.04;70.47;100866.05;2074893;84;21585;-81
2021/04/23 09:34:33;;;;;;;15.72;8.33;;;;;;;8.60;69.66;100857.31;2068963;84;21078;-82
2021/04/23 09:37:45;;;;;;;13.62;7.45;;;;;;;8.67;66.96;100863.25;2072013;84;21186;-83
2021/04/23 09:40:47;;;;;;;22.10;8.08;;;;;;;8.70;66.58;100868.73;2073144;84;21173;-82
2021/04/23 09:43:48;;;;;;;17.35;8.63;;;;;;;8.80;66.84;100855.53;2074461;84;21752;-81
2021/04/23 09:47:05;;;;;;;21.12;8.20;;;;;;;8.67;65.55;100861.93;2074634;84;21094;-81
2021/04/23 09:50:09;;;;;;;23.83;7.58;;;;;;;8.47;65.60;100871.59;2066837;84;21114;-81
2021/04/23 09:53:10;;;;;;;24.43;8.25;;;;;;;8.09;64.82;100871.78;2068951;84;21113;-80
2021/04/23 09:56:12;;;;;;;13.80;7.10;;;;;;;7.67;64.94;100869.69;2075815;84;21118;-82
2021/04/23 09:59:18;;;;;;;18.37;7.10;;;;;;;7.38;65.76;100865.53;2074356;84;21546;-80
2021/04/23 10:02:22;;;;;;;14.87;6.78;;;;;;;7.30;66.28;100872.77;2072467;84;21158;-80
2021/04/23 10:05:31;;;;;;;14.13;6.97;;;;;;;7.43;67.13;100883.12;2067460;84;21183;-82
2021/04/23 10:08:32;;;;;;;17.05;7.00;;;;;;;7.32;65.96;100867.34;2070938;84;21494;-81
2021/04/23 10:11:43;;;;;;;18.25;7.62;;;;;;;7.37;66.47;100878.36;2071216;84;21165;-80
2021/04/23 10:14:59;;;;;;;17.98;8.08;;;;;;;7.52;66.56;100877.10;2070278;84;21201;-80
2021/04/23 10:18:07;;;;;;;11.88;6.35;;;;;;;7.60;66.03;100870.70;2071638;84;21172;-81
2021/04/23 10:21:08;;;;;;;16.80;6.10;;;;;;;7.61;64.15;100878.96;2075806;84;21331;-81
2021/04/23 10:24:11;;;;;;;15.50;6.40;;;;;;;7.49;64.20;100882.64;2071175;84;21619;-82
2021/04/23 10:27:15;;;;;;;13.20;6.08;;;;;;;7.62;64.23;100861.30;2074202;84;21165;-81
2021/04/23 10:30:24;;;;;;;14.58;6.58;;;;;;;7.81;63.50;100864.06;2072225;84;21220;-82
2021/04/23 10:33:28;;;;;;;12.63;6.55;;;;;;;8.04;63.98;100863.41;2073691;84;21213;-82
2021/04/23 10:36:33;;;;;;;12.65;6.17;;;;;;;8.37;63.83;100864.59;2073714;84;21107;-82
2021/04/23 10:39:36;;;;;;;14.50;6.30;;;;;;;8.53;63.70;100872.41;2069522;84;21650;-82
2021/04/23 10:42:47;;;;;;;13.30;6.15;;;;;;;8.91;62.73;100852.27;2073482;84;21138;-82
2021/04/23 10:46:09;;;;;;;20.50;6.58;;;;;;;9.05;61.47;100863.43;2073748;84;21154;-81
2021/04/23 10:49:09;;;;;;;10.90;5.58;;;;;;;9.06;61.29;100859.80;2071543;84;21198;-83
2021/04/23 10:52:10;;;;;;;11.22;5.60;;;;;;;9.08;60.26;100862.66;2068666;84;21173;-81
2021/04/23 10:55:12;;;;;;;13.68;5.50;;;;;;;9.14;59.05;100867.88;2069960;84;21089;-81
2021/04/23 10:58:28;;;;;;;13.58;6.08;;;;;;;9.04;59.53;100863.06;2072461;84;21173;-79
2021/04/23 11:01:37;;;;;;;13.83;6.50;;;;;;;9.04;59.24;100855.13;2069023;84;21167;-82
2021/04/23 11:05:00;;;;;;;13.18;6.60;;;;;;;9.19;59.15;100853.75;2071131;84;21129;-84
2021/04/23 11:08:09;;;;;;;16.45;6.55;;;;;;;9.27;58.75;100857.86;2073682;84;21142;-82
2021/04/23 11:11:12;;;;;;;11.63;6.45;;;;;;;9.26;57.27;100849.55;2071294;84;21154;-82
2021/04/23 11:14:28;;;;;;;11.63;7.42;;;;;;;9.10;57.87;100861.20;2072161;84;21158;-82
2021/04/23 11:17:32;;;;;;;11.90;6.22;;;;;;;9.05;58.97;100860.29;2074692;84;21135;-83
2021/04/23 11:20:35;;;;;;;14.30;6.67;;;;;;;8.70;59.96;100852.86;2068825;84;21098;-82
2021/04/23 11:24:16;;;;;;;13.15;7.65;;;;;;;8.20;60.31;100858.14;2075446;84;21216;-81
2021/04/23 11:27:18;;;;;;;15.15;7.08;;;;;;;7.98;61.57;100861.79;2075549;84;21126;-83
2021/04/23 11:30:19;;;;;;;15.40;7.55;;;;;;;7.92;61.06;100867.12;2076577;84;21097;-81
2021/04/23 11:33:54;;;;;;;15.80;8.33;;;;;;;7.98;61.26;100862.62;2074064;84;21541;-81
2021/04/23 11:37:04;;;;;;;15.68;7.95;;;;;;;8.10;61.12;100854.11;2063650;84;21176;-83
2021/04/23 11:40:23;;;;;;;18.37;7.23;;;;;;;8.38;59.47;100856.52;2067226;84;21551;-82
2021/04/23 11:43:38;;;;;;;14.95;6.40;;;;;;;8.50;60.01;100838.30;2076208;84;21419;-80
2021/04/23 11:46:53;;;;;;;15.03;7.28;;;;;;;8.79;58.97;100848.58;2095318;83;21080;-82
2021/04/23 11:50:24;;;;;;;9.00;6.42;;;;;;;9.30;60.42;100845.66;2076290;84;21115;-82
2021/04/23 11:53:26;;;;;;;10.70;6.22;;;;;;;9.67;57.39;100839.59;2058389;84;21160;-82
2021/04/23 11:56:27;;;;;;;13.50;5.78;;;;;;;9.63;57.40;100847.50;2077699;84;21694;-80
2021/04/23 11:59:29;;;;;;;12.82;5.60;;;;;;;9.94;56.35;100837.97;2062494;84;21170;-82
2021/04/23 12:02:40;;;;;;;12.03;5.42;;;;;;;10.14;55.73;100842.24;2076050;83;21197;-81
2021/04/23 12:05:50;;;;;;;12.23;5.03;;;;;;;9.98;54.20;100842.85;2062308;85;21134;-82
2021/04/23 12:08:51;;;;;;;12.05;6.03;;;;;;;10.14;54.35;100846.22;2061225;84;21156;-81
2021/04/23 12:12:07;;;;;;;11.60;5.22;;;;;;;10.47;53.23;100840.00;2056350;85;21118;-82
2021/04/23 12:15:19;;;;;;;11.97;5.50;;;;;;;10.57;51.15;100839.45;2061673;85;21613;-83
2021/04/23 12:18:20;;;;;;;14.40;5.03;;;;;;;10.71;53.28;100840.27;2057786;84;21150;-82
2021/04/23 12:21:23;;;;;;;11.30;5.15;;;;;;;10.71;51.60;100841.60;2075992;84;21110;-80
2021/04/23 12:24:24;;;;;;;15.88;5.10;;;;;;;10.80;51.54;100844.34;2096993;83;21101;-83
2021/04/23 12:27:26;;;;;;;11.95;5.10;;;;;;;10.89;50.47;100837.63;2047419;85;21110;-81
2021/04/23 12:30:31;;;;;;;8.60;4.65;;;;;;;10.96;50.58;100833.89;2102697;83;21188;-82
2021/04/23 12:33:59;;;;;;;12.98;5.60;;;;;;;10.99;50.48;100831.75;2065609;84;21648;-80
2021/04/23 12:37:00;;;;;;;10.58;5.80;;;;;;;10.87;49.12;100831.65;2090713;83;21207;-82
2021/04/23 12:40:02;;;;;;;14.05;5.00;;;;;;;10.86;49.19;100838.42;2088758;83;21160;-83
2021/04/23 12:43:19;;;;;;;12.63;6.08;;;;;;;10.91;49.63;100833.50;2118908;82;21188;-82
2021/04/23 12:46:39;;;;;;;21.73;7.35;;;;;;;11.06;48.86;100830.64;2115998;82;21113;-84
2021/04/23 12:49:42;;;;;;;11.38;4.87;;;;;;;11.07;47.31;100831.00;2100936;83;21177;-83
2021/04/23 12:52:45;;;;;;;10.08;5.30;;;;;;;10.92;48.00;100833.34;2100764;83;21709;-84
2021/04/23 12:55:47;;;;;;;8.03;4.92;;;;;;;10.87;47.97;100829.47;2073741;84;21152;-82
2021/04/23 12:58:49;;;;;;;11.30;5.25;;;;;;;11.06;48.66;100839.11;2077989;84;21672;-83
2021/04/23 13:01:51;;;;;;;8.28;4.55;;;;;;;11.18;49.08;100836.08;2098793;83;21124;-83
2021/04/23 13:05:15;;;;;;;10.00;4.45;;;;;;;10.95;47.00;100835.72;2099425;83;21172;-83
2021/04/23 13:08:19;;;;;;;8.60;4.47;;;;;;;10.83;46.67;100826.78;2099154;83;21132;-81
2021/04/23 13:11:25;;;;;;;11.70;5.10;;;;;;;10.86;47.50;100827.80;2080301;84;21529;-84
2021/04/23 13:14:27;;;;;;;10.93;5.45;;;;;;;10.92;47.58;100833.34;2078650;84;21138;-82
2021/04/23 13:17:41;;;;;;;10.90;4.97;;;;;;;10.90;48.09;100827.36;2102544;83;21120;-82
2021/04/23 13:20:50;;;;;;;16.23;5.80;;;;;;;11.01;47.64;100830.29;2073727;84;21209;-84
2021/04/23 13:23:52;;;;;;;10.72;3.83;;;;;;;10.99;46.94;100843.70;2087185;83;21165;-83
2021/04/23 13:26:53;;;;;;;14.13;5.25;;;;;;;11.02;45.87;100835.93;2114645;82;21132;-83
2021/04/23 13:29:55;;;;;;;18.35;5.17;;;;;;;10.94;45.83;100839.34;2116285;82;21173;-82
2021/04/23 13:33:04;;;;;;;7.72;3.98;;;;;;;11.00;46.16;100843.20;2109034;82;21230;-82
2021/04/23 13:36:17;;;;;;;11.68;4.85;;;;;;;11.18;46.30;100839.23;2020264;86;21187;-82
2021/04/23 13:39:19;;;;;;;7.78;3.85;;;;;;;11.17;45.57;100838.38;2024333;86;21121;-84
2021/04/23 13:42:24;;;;;;;14.13;4.50;;;;;;;10.98;44.75;100831.89;2023794;86;21565;-83
2021/04/23 13:45:25;;;;;;;8.10;4.00;;;;;;;10.68;45.47;100844.56;2027732;86;21148;-84
2021/04/23 13:48:30;;;;;;;9.98;4.35;;;;;;;10.55;45.86;100846.23;2025392;86;21135;-83
2021/04/23 13:51:36;;;;;;;7.15;4.00;;;;;;;10.56;45.21;100841.78;2024463;86;21225;-84
2021/04/23 13:54:39;;;;;;;11.05;4.50;;;;;;;10.47;45.81;100840.00;2025332;86;21515;-82
2021/04/23 13:58:22;;;;;;;12.63;5.00;;;;;;;10.49;45.29;100830.91;2015337;86;21692;-82
2021/04/23 14:01:43;;;;;;;13.78;6.65;;;;;;;10.64;46.12;100844.99;1965336;88;21189;-88
2021/04/23 14:04:45;;;;;;;;;;;;;;;10.60;46.47;100848.45;1972895;88;21289;-80
2021/04/23 14:07:46;;;;;;;17.02;7.95;;;;;;;10.54;45.77;100836.61;1968491;87;20222;-78
2021/04/23 14:10:48;;;;;;;14.70;5.58;;;;;;;10.47;46.12;100840.00;1970746;88;21141;-89
2021/04/23 14:13:57;;;;;;;8.18;4.67;;;;;;;10.57;45.80;100848.75;1946514;89;21224;-79
2021/04/23 14:17:03;;;;;;;15.23;6.10;;;;;;;10.53;46.08;100840.72;1941327;89;21289;-79